Time;durP1;ratioP1;P1;durP2;ratioP2;P2;SDS_P1;SDS_P2;PMS_P1;PMS_P2;Temp;Humidity;BMP_temperature;BMP_pressure;BME280_temperature;BME280_humidity;BME280_pressure;Samples;Min_cycle;Max_cycle;Signal;HPM_P1;HPM_P2
2022/11/01 00:01:02;;;;;;;41.72;19.52;;;14.10;99.90;;;;;;4966731;28;21093;-65
2022/11/01 00:03:29;;;;;;;34.83;17.25;;;14.20;99.90;;;;;;4980253;28;20199;-64
2022/11/01 00:05:56;;;;;;;35.67;16.63;;;14.20;99.90;;;;;;4966719;28;20231;-64
2022/11/01 00:08:23;;;;;;;35.38;17.65;;;14.20;99.90;;;;;;4980723;28;20592;-64
2022/11/01 00:10:49;;;;;;;30.17;16.55;;;14.10;99.90;;;;;;4987109;28;20430;-65
2022/11/01 00:13:18;;;;;;;35.45;17.85;;;14.20;99.90;;;;;;4978536;28;20227;-65
2022/11/01 00:15:44;;;;;;;30.92;15.73;;;14.10;99.90;;;;;;4987722;28;20232;-65
2022/11/01 00:18:11;;;;;;;32.72;18.13;;;14.20;99.90;;;;;;4961185;28;20219;-65
2022/11/01 00:20:38;;;;;;;40.03;19.00;;;14.20;99.90;;;;;;4972765;28;20210;-66
2022/11/01 00:23:05;;;;;;;43.38;19.15;;;14.20;99.90;;;;;;4983688;28;20205;-65
2022/11/01 00:25:31;;;;;;;44.38;19.60;;;14.30;99.90;;;;;;4967447;28;20214;-65
2022/11/01 00:27:58;;;;;;;42.97;19.65;;;14.30;99.90;;;;;;4984752;28;20195;-65
2022/11/01 00:30:26;;;;;;;39.92;19.50;;;14.30;99.90;;;;;;4979334;28;20211;-65
2022/11/01 00:32:53;;;;;;;39.28;18.23;;;14.30;99.90;;;;;;4968515;28;20211;-65
2022/11/01 00:35:20;;;;;;;38.72;19.52;;;14.30;99.90;;;;;;4987177;28;21033;-65
2022/11/01 00:37:47;;;;;;;39.38;18.92;;;14.30;99.90;;;;;;4972121;28;20223;-66
2022/11/01 00:40:14;;;;;;;46.10;19.92;;;14.30;99.90;;;;;;4976853;28;20199;-66
2022/11/01 00:42:41;;;;;;;39.00;19.23;;;14.30;99.90;;;;;;4990079;28;20203;-65
2022/11/01 00:45:08;;;;;;;40.38;19.58;;;14.20;99.90;;;;;;4979355;28;20221;-65
2022/11/01 00:47:36;;;;;;;35.67;19.63;;;14.30;99.90;;;;;;4962620;28;20218;-66
2022/11/01 00:50:03;;;;;;;38.50;19.58;;;14.30;99.90;;;;;;4980989;28;20212;-65
2022/11/01 00:52:30;;;;;;;39.58;19.95;;;14.30;99.90;;;;;;4967994;28;20242;-65
2022/11/01 00:54:56;;;;;;;40.95;19.60;;;14.30;99.90;;;;;;4983581;28;20230;-65
2022/11/01 00:57:23;;;;;;;42.78;19.40;;;14.30;99.90;;;;;;4988245;28;20996;-65
2022/11/01 00:59:50;;;;;;;39.97;19.88;;;14.30;99.90;;;;;;4979411;28;20210;-65
2022/11/01 01:02:17;;;;;;;38.80;19.52;;;14.30;99.90;;;;;;4991788;28;20203;-65
2022/11/01 01:04:45;;;;;;;41.13;19.58;;;14.30;99.90;;;;;;4962886;28;20215;-65
2022/11/01 01:07:12;;;;;;;40.30;17.83;;;14.30;99.90;;;;;;4969721;28;20211;-65
2022/11/01 01:09:39;;;;;;;39.90;19.98;;;14.30;99.90;;;;;;4993327;28;20567;-66
2022/11/01 01:12:06;;;;;;;42.63;18.67;;;14.20;99.90;;;;;;4977519;28;20199;-65
2022/11/01 01:14:33;;;;;;;38.63;19.58;;;14.20;99.90;;;;;;4940748;28;20237;-65
2022/11/01 01:17:00;;;;;;;45.95;20.73;;;14.30;99.90;;;;;;4986388;28;20218;-65
2022/11/01 01:19:28;;;;;;;39.30;20.13;;;14.30;99.90;;;;;;4966997;28;20218;-65
2022/11/01 01:21:56;;;;;;;44.50;21.92;;;14.30;99.90;;;;;;4970339;28;20194;-65
2022/11/01 01:24:23;;;;;;;41.28;19.42;;;14.20;99.90;;;;;;4963228;28;20694;-65
2022/11/01 01:26:50;;;;;;;40.65;20.70;;;14.30;99.90;;;;;;4971425;28;20202;-65
2022/11/01 01:29:17;;;;;;;40.80;21.20;;;14.30;99.90;;;;;;4973477;28;20520;-66
2022/11/01 01:31:44;;;;;;;41.70;21.23;;;14.30;99.90;;;;;;4988338;28;20298;-65
2022/11/01 01:34:12;;;;;;;46.28;21.05;;;14.20;99.90;;;;;;4959682;28;20211;-65
2022/11/01 01:36:38;;;;;;;41.45;20.08;;;14.20;99.90;;;;;;4980687;28;20230;-66
2022/11/01 01:39:06;;;;;;;47.75;21.00;;;14.20;99.90;;;;;;4969270;28;20229;-65
2022/11/01 01:45:04;;;;;;;40.50;20.63;;;14.30;99.90;;;;;;4978466;28;20222;-65
2022/11/01 01:47:34;;;;;;;43.88;20.65;;;14.30;99.90;;;;;;4992216;28;20198;-65
2022/11/01 01:50:05;;;;;;;43.72;20.50;;;14.30;99.90;;;;;;4967336;28;20206;-65
2022/11/01 01:52:35;;;;;;;41.85;20.55;;;14.20;99.90;;;;;;4979627;28;20231;-65
2022/11/01 01:55:08;;;;;;;46.00;20.50;;;14.20;99.90;;;;;;4951803;28;20234;-65
2022/11/01 01:57:36;;;;;;;43.80;20.98;;;14.20;99.90;;;;;;4989152;28;20210;-65
2022/11/01 02:00:05;;;;;;;45.90;20.75;;;14.20;99.90;;;;;;4964694;28;20261;-65
2022/11/01 02:02:32;;;;;;;52.53;21.75;;;14.20;99.90;;;;;;4978331;28;20206;-65
2022/11/01 02:05:03;;;;;;;40.83;19.45;;;14.20;99.90;;;;;;4967171;28;20217;-66
2022/11/01 02:07:30;;;;;;;41.45;20.13;;;14.20;99.90;;;;;;4976675;28;20207;-65
2022/11/01 02:09:57;;;;;;;50.72;21.55;;;14.30;99.90;;;;;;4967752;28;20672;-65
2022/11/01 02:12:31;;;;;;;44.05;20.35;;;14.30;99.90;;;;;;4986219;28;20600;-65
2022/11/01 02:14:58;;;;;;;45.85;19.63;;;14.30;99.90;;;;;;4979161;28;20227;-66
2022/11/01 02:17:30;;;;;;;44.15;20.88;;;14.30;99.90;;;;;;4979664;28;20214;-65
2022/11/01 02:20:19;;;;;;;48.13;21.05;;;14.30;99.90;;;;;;4988934;28;20210;-65
2022/11/01 02:23:16;;;;;;;40.45;20.35;;;14.30;99.90;;;;;;4973340;28;20207;-65
2022/11/01 02:26:00;;;;;;;38.90;20.77;;;14.30;99.90;;;;;;4949239;28;20572;-66
2022/11/01 02:28:43;;;;;;;40.85;19.00;;;14.20;99.90;;;;;;4983453;28;20200;-65
2022/11/01 02:31:27;;;;;;;37.20;19.75;;;14.30;99.90;;;;;;4976925;28;20207;-65
2022/11/01 02:33:59;;;;;;;42.67;20.10;;;14.30;99.90;;;;;;4987448;28;20209;-65
2022/11/01 02:36:34;;;;;;;41.38;21.05;;;14.20;99.90;;;;;;4952171;28;20238;-65
2022/11/01 02:39:08;;;;;;;35.42;20.50;;;14.20;99.90;;;;;;4986186;28;20202;-65
2022/11/01 02:41:42;;;;;;;42.83;18.75;;;14.20;99.90;;;;;;4973606;28;20207;-65
2022/11/01 02:44:15;;;;;;;38.33;19.73;;;14.30;99.90;;;;;;4976756;28;20207;-64
2022/11/01 02:47:02;;;;;;;36.63;19.85;;;14.20;99.90;;;;;;4976601;28;20203;-65
2022/11/01 02:49:34;;;;;;;38.38;18.95;;;14.20;99.90;;;;;;4985872;28;22948;-65
2022/11/01 02:52:02;;;;;;;38.92;18.83;;;14.30;99.90;;;;;;4967125;28;20237;-64
2022/11/01 02:54:32;;;;;;;42.88;19.40;;;14.20;99.90;;;;;;4971527;28;20203;-65
2022/11/01 02:57:06;;;;;;;39.15;18.77;;;14.20;99.90;;;;;;4963493;28;20207;-65
2022/11/01 02:59:44;;;;;;;38.28;19.73;;;14.20;99.90;;;;;;4972761;28;20584;-65
2022/11/01 03:02:16;;;;;;;37.03;19.92;;;14.20;99.90;;;;;;4974858;28;20264;-65
2022/11/01 03:04:45;;;;;;;38.45;19.65;;;14.20;99.90;;;;;;4985891;28;20337;-65
2022/11/01 03:07:13;;;;;;;37.10;19.40;;;14.20;99.90;;;;;;4965354;28;20587;-65
2022/11/01 03:09:41;;;;;;;37.15;19.42;;;14.20;99.90;;;;;;4970799;28;20203;-65
2022/11/01 03:12:14;;;;;;;36.50;19.08;;;14.20;99.90;;;;;;4968493;28;20207;-65
2022/11/01 03:14:49;;;;;;;41.13;18.52;;;14.30;99.90;;;;;;4975061;28;20210;-65
2022/11/01 03:17:23;;;;;;;35.20;17.50;;;14.30;99.90;;;;;;4977077;28;20206;-66
2022/11/01 03:19:56;;;;;;;38.53;19.33;;;14.20;99.90;;;;;;4986569;28;20214;-65
2022/11/01 03:22:29;;;;;;;38.53;19.38;;;14.20;99.90;;;;;;4963835;28;20210;-65
2022/11/01 03:25:36;;;;;;;37.92;18.38;;;14.30;99.90;;;;;;4977653;28;20241;-65
2022/11/01 03:27:54;;;;;;;31.08;17.10;;;14.30;99.90;;;;;;4972068;28;20206;-65
2022/11/01 03:30:22;;;;;;;30.75;17.58;;;14.30;99.90;;;;;;4989392;28;20656;-65
2022/11/01 03:32:52;;;;;;;34.60;17.85;;;14.40;99.90;;;;;;4968186;28;20203;-65
2022/11/01 03:35:24;;;;;;;31.88;17.05;;;14.30;99.90;;;;;;4987695;28;20218;-65
2022/11/01 03:37:54;;;;;;;31.77;17.23;;;14.30;99.90;;;;;;4966669;28;20211;-65
2022/11/01 03:40:24;;;;;;;31.73;17.25;;;14.30;99.90;;;;;;4980911;28;20226;-65
2022/11/01 03:42:54;;;;;;;37.60;18.05;;;14.40;99.90;;;;;;4966454;28;20209;-65
2022/11/01 03:45:24;;;;;;;31.05;16.70;;;14.40;99.90;;;;;;4992804;28;20226;-65
2022/11/01 03:47:51;;;;;;;35.55;15.60;;;14.30;99.90;;;;;;4972372;28;21110;-66
2022/11/01 03:50:21;;;;;;;29.95;16.45;;;14.40;99.90;;;;;;4991651;28;20203;-65
2022/11/01 03:52:48;;;;;;;33.88;16.92;;;14.30;99.90;;;;;;4966369;28;20246;-66
2022/11/01 03:55:19;;;;;;;33.05;17.40;;;14.30;99.90;;;;;;4979736;28;20223;-65
2022/11/01 03:57:47;;;;;;;38.80;17.75;;;14.30;99.90;;;;;;4965930;28;20927;-66
2022/11/01 04:00:15;;;;;;;31.02;16.52;;;14.30;99.90;;;;;;4988070;28;20202;-65
2022/11/01 04:02:42;;;;;;;32.75;16.63;;;14.30;99.90;;;;;;4967954;28;20202;-65
2022/11/01 04:05:10;;;;;;;29.63;16.52;;;14.30;99.90;;;;;;4993164;28;20211;-65
2022/11/01 04:07:38;;;;;;;27.05;14.93;;;14.30;99.90;;;;;;4994115;28;20199;-65
2022/11/01 04:10:06;;;;;;;27.70;16.17;;;14.30;99.90;;;;;;4961192;28;20214;-65
2022/11/01 04:12:33;;;;;;;27.33;15.13;;;14.20;99.90;;;;;;4990744;28;20198;-65
2022/11/01 04:20:34;;;;;;;32.88;14.98;;;14.20;99.90;;;;;;4992093;28;20249;-65
2022/11/01 04:23:05;;;;;;;28.23;14.55;;;14.20;99.90;;;;;;4988123;28;20991;-65
2022/11/01 04:25:33;;;;;;;27.15;15.73;;;14.30;99.90;;;;;;4958161;28;20222;-65
2022/11/01 04:28:00;;;;;;;28.70;15.15;;;14.30;99.90;;;;;;4991980;28;20203;-65
2022/11/01 04:30:28;;;;;;;23.70;13.93;;;14.30;99.90;;;;;;4963174;28;20214;-65
2022/11/01 04:32:56;;;;;;;31.23;14.35;;;14.30;99.90;;;;;;4970347;28;20684;-66
2022/11/01 04:35:23;;;;;;;26.67;14.82;;;14.30;99.90;;;;;;4988116;28;20226;-65
2022/11/01 04:37:56;;;;;;;27.98;13.95;;;14.30;99.90;;;;;;4989435;28;20195;-65
2022/11/01 04:40:25;;;;;;;24.17;13.88;;;14.30;99.90;;;;;;4975257;28;20210;-65
2022/11/01 04:42:52;;;;;;;22.30;13.40;;;14.30;99.90;;;;;;4973801;28;20230;-65
2022/11/01 04:45:19;;;;;;;30.02;13.57;;;14.30;99.90;;;;;;4969772;28;20288;-65
2022/11/01 04:47:51;;;;;;;32.08;13.88;;;14.30;99.90;;;;;;4976676;28;20665;-66
2022/11/01 04:50:18;;;;;;;23.27;12.90;;;14.30;99.90;;;;;;4977685;28;20673;-66
2022/11/01 04:52:45;;;;;;;27.75;12.90;;;14.30;99.90;;;;;;4986659;28;20281;-66
2022/11/01 04:55:12;;;;;;;24.80;14.10;;;14.30;99.90;;;;;;4969412;28;20225;-65
2022/11/01 04:57:41;;;;;;;27.27;14.32;;;14.30;99.90;;;;;;4979399;28;20314;-66
2022/11/01 05:00:10;;;;;;;25.10;13.05;;;14.30;99.90;;;;;;4965921;28;20222;-66
2022/11/01 05:02:38;;;;;;;28.38;14.27;;;14.30;99.90;;;;;;4971100;28;21324;-65
2022/11/01 05:05:06;;;;;;;23.05;12.82;;;14.30;99.90;;;;;;4967271;28;20310;-65
2022/11/01 05:07:33;;;;;;;20.83;12.30;;;14.30;99.90;;;;;;4983867;28;20203;-66
2022/11/01 05:10:01;;;;;;;23.77;13.40;;;14.50;99.90;;;;;;4961598;28;20237;-65
2022/11/01 05:12:28;;;;;;;21.15;12.95;;;14.30;99.90;;;;;;4974245;28;20223;-66
2022/11/01 05:14:56;;;;;;;20.50;11.38;;;14.30;99.90;;;;;;4959660;28;20227;-66
2022/11/01 05:17:23;;;;;;;27.70;13.00;;;14.40;99.90;;;;;;4967599;28;20281;-65
2022/11/01 05:19:50;;;;;;;23.45;12.10;;;14.40;99.90;;;;;;4989633;28;20202;-67
2022/11/01 05:22:17;;;;;;;27.80;12.32;;;14.40;99.90;;;;;;4965102;28;20243;-65
2022/11/01 05:24:44;;;;;;;20.00;12.45;;;14.40;99.90;;;;;;4979070;28;20199;-65
2022/11/01 05:27:11;;;;;;;20.08;11.55;;;14.40;99.90;;;;;;4968434;28;20700;-65
2022/11/01 05:29:38;;;;;;;24.63;12.10;;;14.40;99.90;;;;;;4974208;28;20219;-64
2022/11/01 05:32:06;;;;;;;20.40;11.52;;;14.40;99.90;;;;;;4965907;28;20237;-64
2022/11/01 05:34:33;;;;;;;20.60;11.50;;;14.40;99.90;;;;;;4970131;28;20226;-64
2022/11/01 05:37:00;;;;;;;22.35;12.55;;;14.40;99.90;;;;;;4971652;28;20712;-64
2022/11/01 05:39:27;;;;;;;22.48;11.38;;;14.40;99.90;;;;;;4979558;28;20223;-65
2022/11/01 05:41:53;;;;;;;19.55;10.45;;;14.40;99.90;;;;;;4965957;28;20218;-64
2022/11/01 05:44:20;;;;;;;22.95;11.43;;;14.40;99.90;;;;;;4976507;28;20222;-65
2022/11/01 05:46:47;;;;;;;23.10;10.45;;;14.40;99.90;;;;;;4969939;28;20226;-64
2022/11/01 05:49:15;;;;;;;23.02;10.60;;;14.40;99.90;;;;;;4964600;28;20226;-64
2022/11/01 05:51:42;;;;;;;21.20;10.73;;;14.40;99.90;;;;;;4973211;28;20235;-64
2022/11/01 05:54:09;;;;;;;20.05;11.35;;;14.40;99.90;;;;;;4971550;28;20235;-65
2022/11/01 05:56:36;;;;;;;21.70;11.20;;;14.40;99.90;;;;;;4976388;28;20876;-64
2022/11/01 05:59:03;;;;;;;18.73;11.82;;;14.40;99.90;;;;;;4966886;28;20209;-64
2022/11/01 06:01:30;;;;;;;21.60;10.60;;;14.40;99.90;;;;;;4949876;28;20822;-65
2022/11/01 06:04:00;;;;;;;18.77;10.70;;;14.40;99.90;;;;;;4975129;28;20207;-64
2022/11/01 06:06:29;;;;;;;16.67;10.52;;;14.30;99.90;;;;;;4971846;28;20961;-64
2022/11/01 06:08:56;;;;;;;17.35;10.70;;;14.80;99.90;;;;;;4952566;28;20618;-64
2022/11/01 06:11:24;;;;;;;20.48;10.30;;;14.40;99.90;;;;;;4973199;28;20226;-65
2022/11/01 06:13:54;;;;;;;18.48;10.20;;;14.40;99.90;;;;;;4933098;28;20203;-65
2022/11/01 06:16:21;;;;;;;20.92;10.77;;;14.40;99.90;;;;;;4963545;28;20226;-65
2022/11/01 06:18:48;;;;;;;18.80;10.52;;;14.40;99.90;;;;;;4959780;28;20209;-64
2022/11/01 06:21:16;;;;;;;18.90;10.23;;;14.40;99.90;;;;;;4993715;28;20218;-64
2022/11/01 06:23:49;;;;;;;17.52;10.80;;;14.40;99.90;;;;;;4977925;28;20212;-64
2022/11/01 06:26:16;;;;;;;17.17;10.00;;;14.40;99.90;;;;;;4990605;28;20684;-64
2022/11/01 06:28:43;;;;;;;18.55;10.95;;;14.40;99.90;;;;;;4972054;28;20203;-65
2022/11/01 06:31:10;;;;;;;14.68;9.45;;;14.40;99.90;;;;;;4978776;28;20277;-64
2022/11/01 06:33:37;;;;;;;19.98;9.18;;;14.40;99.90;;;;;;4950566;28;20235;-65
2022/11/01 06:36:05;;;;;;;14.20;9.10;;;14.40;99.90;;;;;;4982522;28;20225;-65
2022/11/01 06:38:32;;;;;;;16.02;9.68;;;14.40;99.90;;;;;;4978931;28;20211;-65
2022/11/01 06:41:00;;;;;;;14.23;9.20;;;14.40;99.90;;;;;;4985194;28;20199;-64
2022/11/01 06:43:27;;;;;;;16.63;8.48;;;14.40;99.90;;;;;;4990210;28;20203;-65
2022/11/01 06:45:54;;;;;;;13.43;8.50;;;14.40;99.90;;;;;;4960323;28;20210;-65
2022/11/01 06:48:21;;;;;;;14.95;8.38;;;14.40;99.90;;;;;;4970620;28;20207;-64
2022/11/01 06:50:47;;;;;;;22.23;8.05;;;14.40;99.90;;;;;;4973586;28;20573;-64
2022/11/01 06:53:14;;;;;;;13.20;7.35;;;14.40;99.90;;;;;;4978773;28;20203;-64
2022/11/01 06:55:41;;;;;;;15.93;7.78;;;14.40;99.90;;;;;;4979727;28;20199;-65
2022/11/01 06:58:10;;;;;;;11.02;7.15;;;14.40;99.90;;;;;;4985506;28;20679;-64
2022/11/01 07:00:37;;;;;;;16.83;7.35;;;14.40;99.90;;;;;;4967616;28;20229;-65
2022/11/01 07:03:06;;;;;;;12.50;6.78;;;14.40;99.90;;;;;;4959064;28;20195;-65
2022/11/01 07:05:35;;;;;;;11.57;7.68;;;14.40;99.90;;;;;;4957207;28;20217;-65
2022/11/01 07:08:03;;;;;;;15.75;7.65;;;14.40;99.90;;;;;;4979195;28;20211;-66
2022/11/01 07:10:30;;;;;;;10.32;7.32;;;14.50;99.90;;;;;;4976752;28;20211;-65
2022/11/01 07:13:00;;;;;;;16.50;7.00;;;14.50;99.90;;;;;;4989570;28;20210;-64
2022/11/01 07:15:29;;;;;;;13.95;6.30;;;14.50;99.90;;;;;;4977715;28;20695;-65
2022/11/01 07:17:57;;;;;;;9.57;5.65;;;14.50;99.90;;;;;;4970991;28;20780;-65
2022/11/01 07:20:24;;;;;;;14.82;6.40;;;14.60;99.90;;;;;;4961155;28;20242;-65
2022/11/01 07:22:59;;;;;;;11.73;5.57;;;14.60;99.90;;;;;;4974966;28;20234;-64
2022/11/01 07:25:26;;;;;;;12.95;6.00;;;14.60;99.90;;;;;;4974871;28;20207;-65
2022/11/01 07:27:53;;;;;;;12.27;5.38;;;14.60;99.90;;;;;;4984059;28;20211;-65
2022/11/01 07:30:20;;;;;;;12.48;5.38;;;14.60;99.90;;;;;;4991115;28;20237;-65
2022/11/01 07:32:49;;;;;;;8.57;4.80;;;14.70;99.90;;;;;;4958902;28;20211;-66
2022/11/01 07:35:16;;;;;;;9.23;4.90;;;14.70;99.90;;;;;;4968708;28;20798;-65
2022/11/01 07:37:42;;;;;;;10.32;5.63;;;14.70;99.90;;;;;;4973256;28;20235;-66
2022/11/01 07:40:11;;;;;;;9.45;4.57;;;14.70;99.90;;;;;;4983741;28;20226;-65
2022/11/01 07:42:42;;;;;;;10.95;4.70;;;14.80;99.90;;;;;;4988605;28;20289;-65
2022/11/01 07:45:10;;;;;;;9.50;4.65;;;14.80;99.90;;;;;;4995207;28;20199;-64
2022/11/01 07:47:37;;;;;;;6.85;4.05;;;14.80;99.90;;;;;;4971188;28;20203;-65
2022/11/01 07:50:06;;;;;;;9.27;5.10;;;14.80;99.90;;;;;;4973099;28;20650;-65
2022/11/01 07:52:33;;;;;;;10.57;4.18;;;14.90;99.90;;;;;;4972124;28;20610;-65
2022/11/01 07:55:00;;;;;;;7.25;4.47;;;14.70;99.90;;;;;;4993688;28;20206;-65
2022/11/01 07:57:27;;;;;;;6.50;4.45;;;14.90;99.90;;;;;;4979458;28;20223;-65
2022/11/01 07:59:54;;;;;;;8.52;4.03;;;15.00;99.90;;;;;;4992942;28;20214;-65
2022/11/01 08:02:21;;;;;;;8.80;3.75;;;14.90;99.90;;;;;;4976666;28;20214;-65
2022/11/01 08:04:48;;;;;;;8.00;4.22;;;15.00;99.90;;;;;;4958626;28;20211;-65
2022/11/01 08:07:16;;;;;;;9.63;3.67;;;15.10;99.90;;;;;;4994960;28;20199;-66
2022/11/01 08:09:44;;;;;;;8.07;4.22;;;15.10;99.90;;;;;;4975568;28;20214;-66
2022/11/01 08:12:11;;;;;;;8.40;3.63;;;15.10;99.90;;;;;;4983705;28;20203;-65
2022/11/01 08:14:38;;;;;;;7.45;4.25;;;15.20;99.90;;;;;;4992321;28;20203;-65
2022/11/01 08:17:05;;;;;;;8.15;3.67;;;15.20;99.90;;;;;;4995565;28;20249;-65
2022/11/01 08:19:32;;;;;;;5.95;3.60;;;15.30;99.90;;;;;;4958696;28;20217;-65
2022/11/01 08:21:59;;;;;;;9.77;3.35;;;15.30;99.90;;;;;;4973145;28;20242;-65
2022/11/01 08:24:27;;;;;;;5.25;3.03;;;15.30;99.90;;;;;;4972444;28;20203;-64
2022/11/01 08:26:54;;;;;;;3.42;2.40;;;15.30;99.90;;;;;;4988213;28;20241;-64
2022/11/01 08:29:21;;;;;;;6.07;2.20;;;15.20;99.90;;;;;;4983899;28;20202;-64
2022/11/01 08:31:49;;;;;;;3.13;2.03;;;15.10;99.90;;;;;;4984296;28;20266;-65
2022/11/01 08:34:15;;;;;;;4.38;1.80;;;15.00;99.90;;;;;;4968702;28;20219;-64
2022/11/01 08:36:42;;;;;;;6.07;2.10;;;15.00;99.90;;;;;;4967517;28;22095;-65
2022/11/01 08:39:09;;;;;;;2.95;1.83;;;15.00;99.90;;;;;;4983831;28;20214;-64
2022/11/01 08:41:38;;;;;;;2.97;1.70;;;15.00;99.90;;;;;;4990442;28;20203;-64
2022/11/01 08:44:05;;;;;;;3.92;1.30;;;14.90;99.90;;;;;;4983733;28;20203;-65
2022/11/01 08:46:32;;;;;;;3.25;1.50;;;14.90;99.90;;;;;;4990323;28;20218;-64
2022/11/01 08:48:59;;;;;;;2.55;1.35;;;14.80;99.90;;;;;;4973312;28;20218;-65
2022/11/01 08:51:27;;;;;;;5.28;1.50;;;14.80;99.90;;;;;;4990936;28;20226;-65
2022/11/01 08:53:57;;;;;;;4.00;1.20;;;14.70;99.90;;;;;;4969385;28;20207;-64
2022/11/01 08:56:26;;;;;;;2.33;1.20;;;14.60;99.90;;;;;;4967288;28;20209;-65
2022/11/01 08:58:55;;;;;;;1.70;1.10;;;14.50;99.90;;;;;;4980188;28;20203;-64
2022/11/01 09:01:25;;;;;;;1.25;1.05;;;14.50;99.90;;;;;;4979143;28;20336;-64
2022/11/01 09:03:56;;;;;;;1.73;1.20;;;14.50;99.90;;;;;;4991246;28;20724;-64
2022/11/01 09:06:23;;;;;;;1.85;0.95;;;14.40;99.90;;;;;;4973400;28;20312;-64
2022/11/01 09:08:50;;;;;;;2.17;1.13;;;14.40;99.90;;;;;;4972949;28;20699;-64
2022/11/01 09:11:17;;;;;;;1.35;1.15;;;14.40;99.90;;;;;;4982733;28;20203;-64
2022/11/01 09:13:44;;;;;;;1.38;1.00;;;14.40;99.90;;;;;;4981679;28;20217;-65
2022/11/01 09:16:12;;;;;;;2.47;0.82;;;14.50;99.90;;;;;;4982030;28;20199;-64
2022/11/01 09:18:39;;;;;;;2.35;1.02;;;14.50;99.90;;;;;;4990792;28;20318;-64
2022/11/01 09:21:06;;;;;;;4.45;1.25;;;14.60;99.90;;;;;;4969489;28;20214;-64
2022/11/01 09:23:34;;;;;;;5.18;1.23;;;14.60;99.90;;;;;;4969333;28;20222;-65
2022/11/01 09:26:06;;;;;;;4.15;1.20;;;14.70;99.90;;;;;;4978786;28;20206;-65
2022/11/01 09:28:33;;;;;;;6.72;1.50;;;14.70;99.90;;;;;;4992007;28;20214;-64
2022/11/01 09:31:02;;;;;;;4.88;1.88;;;14.70;99.90;;;;;;4975660;28;20600;-65
2022/11/01 09:33:31;;;;;;;2.50;1.20;;;14.90;99.90;;;;;;4983104;28;20225;-65
2022/11/01 09:35:58;;;;;;;1.25;0.95;;;14.90;99.90;;;;;;4966594;28;20439;-64
2022/11/01 09:38:25;;;;;;;3.75;1.42;;;14.80;99.90;;;;;;4966135;28;21248;-65
2022/11/01 09:40:59;;;;;;;2.85;1.25;;;14.90;99.90;;;;;;4989796;28;20203;-64
2022/11/01 09:43:32;;;;;;;6.20;0.88;;;14.80;99.90;;;;;;4983580;28;20341;-64
2022/11/01 09:46:01;;;;;;;6.93;1.40;;;15.00;99.90;;;;;;4982444;28;20207;-65
2022/11/01 09:48:31;;;;;;;5.82;1.08;;;14.90;99.90;;;;;;4979852;28;20211;-64
2022/11/01 09:51:12;;;;;;;7.65;1.50;;;14.80;99.90;;;;;;4988517;28;20203;-63
2022/11/01 09:53:41;;;;;;;3.05;1.45;;;14.90;99.90;;;;;;4988946;28;20210;-64
2022/11/01 09:56:14;;;;;;;3.53;1.02;;;15.00;99.90;;;;;;4967176;28;20579;-65
2022/11/01 09:58:53;;;;;;;1.77;0.95;;;15.00;99.90;;;;;;4978670;28;20230;-64
2022/11/01 10:01:37;;;;;;;2.33;1.20;;;15.00;99.90;;;;;;4977768;28;20400;-64
2022/11/01 10:04:34;;;;;;;6.03;1.23;;;15.00;99.90;;;;;;4991513;28;20211;-65
2022/11/01 10:07:08;;;;;;;10.43;1.92;;;15.00;99.90;;;;;;4980154;28;20712;-64
2022/11/01 10:09:45;;;;;;;4.65;1.42;;;15.00;99.90;;;;;;4984789;28;20203;-64
2022/11/01 10:12:24;;;;;;;5.95;1.75;;;15.00;99.90;;;;;;4962186;28;20202;-64
2022/11/01 10:15:03;;;;;;;7.20;1.90;;;15.00;99.90;;;;;;4980433;28;20258;-64
2022/11/01 10:17:48;;;;;;;2.80;1.00;;;15.00;99.90;;;;;;4978387;28;20238;-64
2022/11/01 10:20:17;;;;;;;6.43;1.70;;;15.00;99.90;;;;;;4987051;28;20289;-64
2022/11/01 10:22:48;;;;;;;8.90;1.70;;;15.00;99.90;;;;;;4948618;28;20233;-64
2022/11/01 10:25:22;;;;;;;5.32;1.45;;;15.10;99.90;;;;;;4980944;28;20219;-64
2022/11/01 10:27:56;;;;;;;14.52;2.17;;;15.10;99.90;;;;;;4945527;28;20231;-63
2022/11/01 10:30:23;;;;;;;5.90;1.63;;;15.20;99.90;;;;;;4976669;28;20214;-64
2022/11/01 10:32:53;;;;;;;11.75;2.05;;;15.20;99.90;;;;;;4992749;28;20572;-64
2022/11/01 10:35:25;;;;;;;15.18;2.13;;;15.10;99.90;;;;;;4980067;28;20199;-64
2022/11/01 10:37:58;;;;;;;7.55;2.03;;;15.10;99.90;;;;;;4981909;28;20223;-64
2022/11/01 10:40:30;;;;;;;6.72;1.35;;;15.10;99.90;;;;;;4965446;28;20246;-64
2022/11/01 10:42:58;;;;;;;9.77;1.77;;;15.10;99.90;;;;;;4963566;28;20217;-63
2022/11/01 10:45:25;;;;;;;8.65;2.05;;;15.10;99.90;;;;;;4950021;28;20207;-63
2022/11/01 10:47:56;;;;;;;8.18;2.50;;;15.10;99.90;;;;;;4987326;28;20210;-64
2022/11/01 10:50:27;;;;;;;11.57;1.92;;;15.10;99.90;;;;;;4966825;28;20727;-63
2022/11/01 10:52:59;;;;;;;7.47;1.90;;;15.20;99.90;;;;;;4991361;28;20226;-63
2022/11/01 10:55:30;;;;;;;8.18;2.20;;;15.20;99.90;;;;;;4968123;28;20780;-64
2022/11/01 10:58:01;;;;;;;8.52;2.13;;;15.20;99.90;;;;;;4970736;28;20234;-63
2022/11/01 11:00:32;;;;;;;12.07;1.98;;;15.30;99.90;;;;;;4982263;28;20195;-63
2022/11/01 11:03:07;;;;;;;9.90;1.95;;;15.30;99.90;;;;;;4977970;28;20282;-63
2022/11/01 11:05:36;;;;;;;4.93;1.75;;;15.30;99.90;;;;;;4969259;28;20226;-65
2022/11/01 11:08:06;;;;;;;6.15;1.67;;;15.30;99.90;;;;;;4987245;28;20199;-63
2022/11/01 11:10:33;;;;;;;14.05;2.10;;;15.30;99.90;;;;;;4955455;28;20226;-64
2022/11/01 11:13:05;;;;;;;9.27;1.63;;;15.30;99.90;;;;;;4984612;28;20207;-64
2022/11/01 11:15:44;;;;;;;8.30;2.22;;;15.30;99.90;;;;;;4966837;28;20257;-65
2022/11/01 11:18:20;;;;;;;9.65;2.05;;;15.30;99.90;;;;;;4969245;28;20235;-64
2022/11/01 11:20:53;;;;;;;9.77;1.92;;;15.30;99.90;;;;;;4991077;28;20202;-65
2022/11/01 11:23:21;;;;;;;8.57;2.03;;;15.30;99.90;;;;;;4988180;28;20210;-64
2022/11/01 11:25:49;;;;;;;5.97;1.88;;;15.30;99.90;;;;;;4950383;28;20249;-64
2022/11/01 11:28:24;;;;;;;7.13;2.00;;;15.30;99.90;;;;;;4990382;28;20203;-65
2022/11/01 11:30:51;;;;;;;6.97;1.80;;;15.40;99.90;;;;;;4963542;28;20201;-64
2022/11/01 11:33:19;;;;;;;8.75;1.70;;;15.40;99.90;;;;;;4974992;28;20199;-64
2022/11/01 11:35:56;;;;;;;4.68;1.90;;;15.40;99.90;;;;;;4979220;28;20297;-64
2022/11/01 11:38:42;;;;;;;7.82;1.65;;;15.40;99.90;;;;;;4966712;28;20662;-65
2022/11/01 11:41:10;;;;;;;6.68;2.05;;;15.40;99.90;;;;;;4951739;28;22936;-64
2022/11/01 11:43:40;;;;;;;4.93;1.73;;;15.40;99.90;;;;;;4965736;28;20316;-64
2022/11/01 11:46:13;;;;;;;8.15;1.65;;;15.40;99.90;;;;;;4933949;28;20449;-64
2022/11/01 11:48:48;;;;;;;4.53;1.30;;;15.40;99.90;;;;;;4964155;28;20262;-63
2022/11/01 11:51:16;;;;;;;5.43;2.00;;;15.40;99.90;;;;;;4978091;28;21404;-64
2022/11/01 11:53:44;;;;;;;6.80;1.65;;;15.40;99.90;;;;;;4982373;28;20862;-64
2022/11/01 11:56:12;;;;;;;6.93;1.40;;;15.50;99.90;;;;;;4959362;28;20233;-64
2022/11/01 11:58:43;;;;;;;5.72;1.50;;;15.50;99.90;;;;;;4976979;28;20234;-64
2022/11/01 12:01:14;;;;;;;10.73;2.42;;;15.50;99.90;;;;;;4937647;28;20223;-64
2022/11/01 12:03:49;;;;;;;9.43;2.13;;;15.50;99.90;;;;;;4971318;28;20219;-64
2022/11/01 12:06:21;;;;;;;7.38;2.05;;;15.50;99.90;;;;;;4974003;28;20229;-65
2022/11/01 12:08:50;;;;;;;8.80;2.05;;;15.50;99.90;;;;;;4973369;28;20284;-64
2022/11/01 12:11:18;;;;;;;7.65;1.98;;;15.50;99.90;;;;;;4957448;28;20222;-64
2022/11/01 12:13:46;;;;;;;7.82;1.90;;;15.60;99.90;;;;;;4968610;28;20412;-65
2022/11/01 12:16:23;;;;;;;6.47;1.40;;;15.60;99.90;;;;;;4953195;28;20233;-64
2022/11/01 12:18:55;;;;;;;4.00;1.25;;;15.70;99.90;;;;;;4961449;28;21291;-64
2022/11/01 12:21:27;;;;;;;7.93;1.95;;;15.70;99.90;;;;;;4987747;28;20198;-64
2022/11/01 12:23:59;;;;;;;11.65;2.15;;;15.60;99.90;;;;;;4988515;28;20238;-65
2022/11/01 12:26:27;;;;;;;8.60;2.00;;;15.70;99.90;;;;;;4967536;28;20230;-65
2022/11/01 12:29:02;;;;;;;3.97;1.48;;;15.60;99.90;;;;;;4985743;28;20743;-64
2022/11/01 12:31:30;;;;;;;7.82;2.10;;;15.60;99.90;;;;;;4955898;28;20678;-64
2022/11/01 12:34:04;;;;;;;8.07;1.55;;;15.60;99.90;;;;;;4980328;28;20234;-63
2022/11/01 12:36:37;;;;;;;11.02;2.10;;;15.60;99.90;;;;;;4978809;28;20222;-65
2022/11/01 12:39:15;;;;;;;7.10;2.03;;;15.60;99.90;;;;;;4994529;28;20218;-64
2022/11/01 12:41:46;;;;;;;7.88;1.90;;;15.50;99.90;;;;;;4968060;28;21043;-65
2022/11/01 12:44:23;;;;;;;10.38;2.38;;;15.50;99.90;;;;;;4993516;28;20206;-64
2022/11/01 12:46:56;;;;;;;9.48;2.05;;;15.50;99.90;;;;;;4966948;28;20214;-64
2022/11/01 12:49:30;;;;;;;11.23;2.33;;;15.50;99.90;;;;;;4993993;28;20261;-65
2022/11/01 12:52:07;;;;;;;10.57;1.63;;;15.50;99.90;;;;;;4980133;28;20226;-64
2022/11/01 12:54:38;;;;;;;8.95;1.70;;;15.50;99.90;;;;;;4988165;28;20336;-64
2022/11/01 12:57:14;;;;;;;16.67;2.47;;;15.50;99.90;;;;;;4967433;28;20246;-64